createdAt,value
2018-07-30T00:01:03.748Z,94496.00
2018-07-30T00:03:35.930Z,94493.00
2018-07-30T00:06:08.337Z,94496.00
2018-07-30T00:08:40.707Z,94494.00
2018-07-30T00:11:12.612Z,94491.00
2018-07-30T00:13:44.937Z,94490.00
2018-07-30T00:16:16.399Z,94492.00
2018-07-30T00:18:48.844Z,94492.00
2018-07-30T00:21:21.010Z,94489.00
2018-07-30T00:23:52.535Z,94483.00
2018-07-30T00:26:24.574Z,94481.00
2018-07-30T00:28:56.990Z,94489.00
2018-07-30T00:31:29.086Z,94501.00
2018-07-30T00:34:01.221Z,94500.00
2018-07-30T00:36:33.628Z,94506.00
2018-07-30T00:39:10.291Z,94504.00
2018-07-30T00:41:42.687Z,94506.00
2018-07-30T00:44:15.186Z,94508.00
2018-07-30T00:46:47.248Z,94501.00
2018-07-30T00:49:19.472Z,94502.00
2018-07-30T00:51:51.843Z,94501.00
2018-07-30T00:54:23.843Z,94496.00
2018-07-30T00:56:55.486Z,94498.00
2018-07-30T00:59:27.439Z,94495.00
2018-07-30T01:01:59.861Z,94496.00
2018-07-30T01:04:31.624Z,94490.00
2018-07-30T01:07:03.497Z,94490.00
2018-07-30T01:09:35.728Z,94491.00
2018-07-30T01:12:07.511Z,94484.00
2018-07-30T01:14:39.584Z,94482.00
2018-07-30T01:17:11.802Z,94487.00
2018-07-30T01:19:44.744Z,94487.00
2018-07-30T01:22:16.864Z,94490.00
2018-07-30T01:24:48.726Z,94487.00
2018-07-30T01:27:21.065Z,94493.00
2018-07-30T01:29:52.905Z,94490.00
2018-07-30T01:32:25.078Z,94492.00
2018-07-30T01:34:57.080Z,94500.00
2018-07-30T01:37:29.205Z,94501.00
2018-07-30T01:40:01.235Z,94496.00
2018-07-30T01:42:33.364Z,94499.00
2018-07-30T01:45:05.844Z,94497.00
2018-07-30T01:47:37.892Z,94491.00
2018-07-30T01:50:10.314Z,94494.00
2018-07-30T01:52:42.507Z,94497.00
2018-07-30T01:55:14.434Z,94494.00
2018-07-30T01:57:46.263Z,94497.00
2018-07-30T02:00:18.362Z,94498.00
2018-07-30T02:02:50.592Z,94503.00
2018-07-30T02:05:22.983Z,94502.00
2018-07-30T02:07:54.884Z,94502.00
2018-07-30T02:10:27.185Z,94510.00
2018-07-30T02:12:59.384Z,94507.00
2018-07-30T02:15:31.824Z,94500.00
2018-07-30T02:18:03.604Z,94502.00
2018-07-30T02:20:35.773Z,94504.00
2018-07-30T02:23:08.007Z,94511.00
2018-07-30T02:25:39.205Z,94512.00
2018-07-30T02:28:12.327Z,94512.00
2018-07-30T02:30:44.906Z,94508.00
2018-07-30T02:33:17.197Z,94504.00
2018-07-30T02:35:49.742Z,94509.00
2018-07-30T02:38:21.225Z,94513.00
2018-07-30T02:40:53.194Z,94509.00
2018-07-30T02:43:24.788Z,94512.00
2018-07-30T02:45:56.804Z,94517.00
2018-07-30T02:48:29.273Z,94520.00
2018-07-30T02:51:01.682Z,94514.00
2018-07-30T02:53:34.665Z,94515.00
2018-07-30T02:56:06.956Z,94508.00
2018-07-30T02:58:38.975Z,94512.00
2018-07-30T03:01:10.967Z,94515.00
2018-07-30T03:03:42.988Z,94520.00
2018-07-30T03:06:15.413Z,94523.00
2018-07-30T03:08:47.356Z,94529.00
2018-07-30T03:11:19.248Z,94518.00
2018-07-30T03:13:52.074Z,94522.00
2018-07-30T03:16:23.881Z,94521.00
2018-07-30T03:18:56.877Z,94533.00
2018-07-30T03:21:28.819Z,94529.00
2018-07-30T03:24:00.323Z,94531.00
2018-07-30T03:26:32.424Z,94526.00
2018-07-30T03:29:04.326Z,94531.00
2018-07-30T03:31:36.259Z,94533.00
2018-07-30T03:34:08.671Z,94543.00
2018-07-30T03:36:40.603Z,94534.00
2018-07-30T03:39:11.851Z,94532.00
2018-07-30T03:41:43.054Z,94540.00
2018-07-30T03:44:15.201Z,94544.00
2018-07-30T03:46:47.308Z,94538.00
2018-07-30T03:49:19.349Z,94533.00
2018-07-30T03:51:52.314Z,94543.00
2018-07-30T03:54:24.326Z,94542.00
2018-07-30T03:56:56.488Z,94541.00
2018-07-30T03:59:28.416Z,94537.00
2018-07-30T04:02:00.442Z,94543.00
2018-07-30T04:04:32.285Z,94542.00
2018-07-30T04:07:04.395Z,94544.00
2018-07-30T04:09:36.214Z,94548.00
2018-07-30T04:12:08.402Z,94549.00
2018-07-30T04:14:40.411Z,94546.00
2018-07-30T04:17:13.212Z,94548.00
2018-07-30T04:19:45.008Z,94551.00
2018-07-30T04:22:16.945Z,94548.00
2018-07-30T04:24:49.607Z,94551.00
2018-07-30T04:27:21.823Z,94554.00
2018-07-30T04:29:53.344Z,94548.00
2018-07-30T04:32:26.240Z,94545.00
2018-07-30T04:34:57.985Z,94546.00
2018-07-30T04:37:30.245Z,94546.00
2018-07-30T04:40:01.765Z,94555.00
2018-07-30T04:42:33.433Z,94556.00
2018-07-30T04:45:05.714Z,94558.00
2018-07-30T04:47:38.712Z,94556.00
2018-07-30T04:50:10.942Z,94556.00
2018-07-30T04:52:43.427Z,94560.00
2018-07-30T04:55:16.613Z,94557.00
2018-07-30T04:57:48.575Z,94559.00
2018-07-30T05:00:20.469Z,94561.00
2018-07-30T05:02:52.657Z,94563.00
2018-07-30T05:05:24.786Z,94569.00
2018-07-30T05:07:56.797Z,94565.00
2018-07-30T05:10:28.981Z,94566.00
2018-07-30T05:13:01.239Z,94560.00
2018-07-30T05:15:32.990Z,94557.00
2018-07-30T05:18:04.931Z,94558.00
2018-07-30T05:20:36.919Z,94565.00
2018-07-30T05:23:09.203Z,94560.00
2018-07-30T05:25:43.196Z,94567.00
2018-07-30T05:28:15.137Z,94562.00
2018-07-30T05:30:47.300Z,94564.00
2018-07-30T05:33:19.027Z,94564.00
2018-07-30T05:35:51.048Z,94562.00
2018-07-30T05:38:24.171Z,94561.00
2018-07-30T05:40:56.249Z,94563.00
2018-07-30T05:43:28.570Z,94564.00
2018-07-30T05:46:01.193Z,94561.00
2018-07-30T05:48:33.365Z,94560.00
2018-07-30T05:51:05.694Z,94564.00
2018-07-30T05:53:38.264Z,94567.00
2018-07-30T05:56:10.464Z,94564.00
2018-07-30T05:58:42.528Z,94566.00
2018-07-30T06:01:14.946Z,94570.00
2018-07-30T06:03:46.742Z,94575.00
2018-07-30T06:06:18.716Z,94577.00
2018-07-30T06:08:50.821Z,94575.00
2018-07-30T06:11:22.740Z,94576.00
2018-07-30T06:13:54.962Z,94576.00
2018-07-30T06:16:27.032Z,94577.00
2018-07-30T06:18:58.939Z,94574.00
2018-07-30T06:21:31.258Z,94572.00
2018-07-30T06:24:03.490Z,94572.00
2018-07-30T06:26:42.149Z,94569.00
2018-07-30T06:29:15.171Z,94574.00
2018-07-30T06:31:47.368Z,94575.00
2018-07-30T06:34:19.585Z,94570.00
2018-07-30T06:36:51.541Z,94572.00
2018-07-30T06:39:23.520Z,94568.00
2018-07-30T06:41:55.705Z,94567.00
2018-07-30T06:44:28.429Z,94572.00
2018-07-30T06:47:00.763Z,94568.00
2018-07-30T06:49:32.720Z,94573.00
2018-07-30T06:52:04.679Z,94575.00
2018-07-30T06:54:37.561Z,94579.00
2018-07-30T06:57:09.598Z,94581.00
2018-07-30T06:59:42.333Z,94582.00
2018-07-30T07:02:14.052Z,94589.00
2018-07-30T07:04:46.005Z,94588.00
2018-07-30T07:07:17.862Z,94590.00
2018-07-30T07:09:49.703Z,94586.00
2018-07-30T07:12:21.575Z,94585.00
2018-07-30T07:14:53.345Z,94584.00
2018-07-30T07:17:25.712Z,94583.00
2018-07-30T07:19:57.448Z,94586.00
2018-07-30T07:22:30.154Z,94580.00
2018-07-30T07:25:01.398Z,94579.00
2018-07-30T07:27:35.394Z,94580.00
2018-07-30T07:30:09.421Z,94583.00
2018-07-30T07:32:42.690Z,94577.00
2018-07-30T07:35:14.671Z,94570.00
2018-07-30T07:37:46.900Z,94571.00
2018-07-30T07:40:18.464Z,94568.00
2018-07-30T07:42:50.692Z,94563.00
2018-07-30T07:45:22.389Z,94563.00
2018-07-30T07:47:54.658Z,94562.00
2018-07-30T07:50:26.891Z,94564.00
2018-07-30T07:52:58.714Z,94562.00
2018-07-30T07:55:30.909Z,94563.00
2018-07-30T07:58:03.958Z,94556.00
2018-07-30T08:00:35.840Z,94555.00
2018-07-30T08:03:07.994Z,94553.00
2018-07-30T08:05:39.887Z,94543.00
2018-07-30T08:08:11.337Z,94534.00
2018-07-30T08:10:43.514Z,94543.00
2018-07-30T08:13:20.012Z,94538.00
2018-07-30T08:15:54.080Z,94535.00
2018-07-30T08:18:25.093Z,94538.00
2018-07-30T08:20:56.065Z,94536.00
2018-07-30T08:23:26.664Z,94535.00
2018-07-30T08:25:57.454Z,94532.00
2018-07-30T08:28:28.456Z,94535.00
2018-07-30T08:30:59.451Z,94529.00
2018-07-30T08:33:30.457Z,94530.00
2018-07-30T08:36:01.436Z,94529.00
2018-07-30T08:38:32.401Z,94531.00
2018-07-30T08:41:03.446Z,94527.00
2018-07-30T08:43:34.455Z,94521.00
2018-07-30T08:46:05.396Z,94520.00
2018-07-30T08:48:36.347Z,94519.00
2018-07-30T08:51:07.359Z,94516.00
2018-07-30T08:53:38.265Z,94519.00
2018-07-30T08:56:08.867Z,94517.00
2018-07-30T08:58:39.789Z,94517.00
2018-07-30T09:01:10.812Z,94514.00
2018-07-30T09:03:41.975Z,94518.00
2018-07-30T09:06:12.953Z,94520.00
2018-07-30T09:08:43.904Z,94513.00
2018-07-30T09:11:14.565Z,94502.00
2018-07-30T09:13:45.381Z,94495.00
2018-07-30T09:16:16.500Z,94499.00
2018-07-30T09:18:47.493Z,94505.00
2018-07-30T09:21:18.356Z,94499.00
2018-07-30T09:23:49.425Z,94498.00
2018-07-30T09:26:20.254Z,94500.00
2018-07-30T09:28:51.271Z,94492.00
2018-07-30T09:31:22.310Z,94491.00
2018-07-30T09:33:53.342Z,94481.00
2018-07-30T09:36:27.074Z,94481.00
2018-07-30T09:38:58.163Z,94477.00
2018-07-30T09:41:29.206Z,94474.00
2018-07-30T09:44:00.214Z,94469.00
2018-07-30T09:46:30.701Z,94468.00
2018-07-30T09:49:01.710Z,94469.00
2018-07-30T09:51:32.891Z,94469.00
2018-07-30T09:54:03.918Z,94473.00
2018-07-30T10:03:24.319Z,94454.00
2018-07-30T10:05:55.424Z,94459.00
2018-07-30T10:08:26.417Z,94458.00
2018-07-30T10:10:57.650Z,94457.00
2018-07-30T10:13:29.227Z,94455.00
2018-07-30T10:16:07.603Z,94454.00
2018-07-30T10:18:38.583Z,94453.00
2018-07-30T10:21:09.536Z,94451.00
2018-07-30T10:23:40.533Z,94445.00
2018-07-30T10:26:11.484Z,94439.00
2018-07-30T10:28:42.436Z,94436.00
2018-07-30T10:31:13.457Z,94440.00
2018-07-30T10:33:44.503Z,94434.00
2018-07-30T10:36:15.503Z,94444.00
2018-07-30T10:38:46.566Z,94445.00
2018-07-30T10:41:17.463Z,94454.00
2018-07-30T10:43:48.389Z,94444.00
2018-07-30T10:46:19.590Z,94443.00
2018-07-30T10:48:50.725Z,94440.00
2018-07-30T10:51:21.863Z,94444.00
2018-07-30T10:53:52.916Z,94432.00
2018-07-30T10:56:23.988Z,94439.00
2018-07-30T10:58:55.004Z,94442.00
2018-07-30T11:01:25.828Z,94447.00
2018-07-30T11:03:56.723Z,94467.00
2018-07-30T11:15:50.111Z,94524.00
2018-07-30T11:18:21.157Z,94516.00
2018-07-30T11:20:52.128Z,94511.00
2018-07-30T11:23:23.164Z,94503.00
2018-07-30T11:25:54.029Z,94507.00
2018-07-30T11:28:25.257Z,94504.00
2018-07-30T11:30:56.397Z,94503.00
2018-07-30T11:33:27.628Z,94499.00
2018-07-30T11:35:58.703Z,94489.00
2018-07-30T11:38:29.625Z,94485.00
2018-07-30T11:41:00.652Z,94482.00
2018-07-30T11:43:32.084Z,94468.00
2018-07-30T11:46:03.443Z,94470.00
2018-07-30T11:48:34.836Z,94479.00
2018-07-30T11:51:06.408Z,94491.00
2018-07-30T11:53:37.897Z,94506.00
2018-07-30T11:56:09.283Z,94503.00
2018-07-30T11:58:40.563Z,94497.00
2018-07-30T12:01:12.742Z,94496.00
2018-07-30T12:03:44.682Z,94506.00
2018-07-30T12:06:17.068Z,94509.00
2018-07-30T12:08:48.380Z,94510.00
2018-07-30T12:11:19.855Z,94506.00
2018-07-30T12:16:58.213Z,94500.00
2018-07-30T12:19:29.303Z,94499.00
2018-07-30T12:22:00.252Z,94498.00
2018-07-30T12:24:31.166Z,94497.00
2018-07-30T12:27:02.553Z,94492.00
2018-07-30T12:29:33.322Z,94486.00
2018-07-30T12:32:04.799Z,94484.00
2018-07-30T12:34:35.643Z,94489.00
2018-07-30T12:37:06.636Z,94488.00
2018-07-30T12:39:37.477Z,94480.00
2018-07-30T12:42:08.447Z,94480.00
2018-07-30T12:44:39.437Z,94474.00
2018-07-30T12:47:10.392Z,94475.00
2018-07-30T12:49:41.370Z,94472.00
2018-07-30T12:52:12.632Z,94474.00
2018-07-30T12:54:45.324Z,94477.00
2018-07-30T12:57:16.960Z,94475.00
2018-07-30T12:59:47.884Z,94481.00
2018-07-30T13:02:18.829Z,94476.00
2018-07-30T13:04:49.970Z,94477.00
2018-07-30T13:07:21.179Z,94479.00
2018-07-30T13:09:52.216Z,94481.00
2018-07-30T13:12:25.081Z,94475.00
2018-07-30T13:14:56.223Z,94473.00
2018-07-30T13:17:27.424Z,94476.00
2018-07-30T13:19:58.357Z,94477.00
2018-07-30T13:22:29.442Z,94479.00
2018-07-30T13:25:00.559Z,94479.00
2018-07-30T13:27:31.846Z,94475.00
2018-07-30T13:30:02.999Z,94474.00
2018-07-30T13:32:33.987Z,94478.00
2018-07-30T13:35:05.540Z,94481.00
2018-07-30T13:37:36.734Z,94483.00
2018-07-30T13:40:07.784Z,94478.00
2018-07-30T13:42:39.033Z,94480.00
2018-07-30T13:45:10.273Z,94484.00
2018-07-30T13:47:41.308Z,94496.00
2018-07-30T13:50:12.584Z,94488.00
2018-07-30T13:52:43.740Z,94478.00
2018-07-30T14:17:16.089Z,94464.00
2018-07-30T14:19:48.960Z,94454.00
2018-07-30T14:22:20.849Z,94464.00
2018-07-30T14:24:53.117Z,94460.00
2018-07-30T14:27:25.127Z,94452.00
2018-07-30T14:29:57.209Z,94450.00
2018-07-30T14:32:28.995Z,94441.00
2018-07-30T14:35:00.860Z,94440.00
2018-07-30T14:37:33.134Z,94444.00
2018-07-30T14:40:11.574Z,94447.00
2018-07-30T14:42:43.770Z,94455.00
2018-07-30T14:45:15.856Z,94465.00
2018-07-30T14:47:48.367Z,94466.00
2018-07-30T14:50:20.769Z,94468.00
2018-07-30T14:52:54.251Z,94466.00
2018-07-30T14:55:26.390Z,94460.00
2018-07-30T14:57:58.441Z,94475.00
2018-07-30T15:00:30.349Z,94481.00
2018-07-30T15:03:04.439Z,94485.00
2018-07-30T15:05:37.193Z,94481.00
2018-07-30T15:08:09.448Z,94482.00
2018-07-30T15:10:41.610Z,94485.00
2018-07-30T15:13:13.416Z,94487.00
2018-07-30T15:15:45.448Z,94488.00
2018-07-30T15:18:17.275Z,94484.00
2018-07-30T15:20:49.557Z,94481.00
2018-07-30T15:23:21.697Z,94481.00
2018-07-30T15:25:53.870Z,94476.00
2018-07-30T15:28:26.095Z,94471.00
2018-07-30T15:30:58.453Z,94478.00
2018-07-30T15:33:30.153Z,94477.00
2018-07-30T15:36:02.390Z,94486.00
2018-07-30T15:38:34.594Z,94484.00
2018-07-30T15:41:06.830Z,94485.00
2018-07-30T15:43:39.461Z,94494.00
2018-07-30T15:46:12.368Z,94502.00
2018-07-30T15:48:44.889Z,94510.00
2018-07-30T15:51:17.284Z,94517.00
2018-07-30T15:53:49.592Z,94515.00
2018-07-30T15:56:22.120Z,94523.00
2018-07-30T15:58:54.666Z,94519.00
2018-07-30T16:01:27.452Z,94517.00
2018-07-30T16:03:59.743Z,94516.00
2018-07-30T16:06:32.481Z,94509.00
2018-07-30T16:09:05.685Z,94506.00
2018-07-30T16:11:38.151Z,94508.00
2018-07-30T16:14:10.395Z,94509.00
2018-07-30T16:16:42.777Z,94508.00
2018-07-30T16:19:15.598Z,94504.00
2018-07-30T16:21:48.110Z,94503.00
2018-07-30T16:24:21.571Z,94506.00
2018-07-30T16:26:56.341Z,94507.00
2018-07-30T16:29:30.211Z,94511.00
2018-07-30T16:32:03.804Z,94510.00
2018-07-30T16:34:37.421Z,94507.00
2018-07-30T16:37:11.130Z,94497.00
2018-07-30T16:39:44.670Z,94504.00
2018-07-30T16:42:18.834Z,94507.00
2018-07-30T16:44:52.033Z,94519.00
2018-07-30T16:47:25.526Z,94518.00
2018-07-30T16:50:00.128Z,94517.00
2018-07-30T16:52:33.863Z,94519.00
2018-07-30T16:55:07.467Z,94524.00
2018-07-30T16:57:40.631Z,94533.00
2018-07-30T17:00:14.754Z,94535.00
2018-07-30T17:02:48.323Z,94537.00
2018-07-30T17:05:22.359Z,94531.00
2018-07-30T17:07:55.989Z,94541.00
2018-07-30T17:10:29.157Z,94538.00
2018-07-30T17:13:02.702Z,94542.00
2018-07-30T17:15:36.462Z,94542.00
2018-07-30T17:18:10.185Z,94544.00
2018-07-30T17:20:44.261Z,94547.00
2018-07-30T17:23:17.274Z,94550.00
2018-07-30T17:25:51.680Z,94551.00
2018-07-30T17:28:25.808Z,94558.00
2018-07-30T17:31:00.119Z,94563.00
2018-07-30T17:33:33.685Z,94564.00
2018-07-30T17:36:08.964Z,94570.00
2018-07-30T17:38:43.726Z,94575.00
2018-07-30T17:41:16.626Z,94572.00
2018-07-30T17:43:50.915Z,94576.00
2018-07-30T17:46:24.574Z,94577.00
2018-07-30T17:48:58.023Z,94573.00
2018-07-30T17:51:31.853Z,94577.00
2018-07-30T17:54:04.908Z,94576.00
2018-07-30T17:56:37.674Z,94570.00
2018-07-30T17:59:10.991Z,94567.00
2018-07-30T18:01:45.062Z,94581.00
2018-07-30T18:04:18.125Z,94585.00
2018-07-30T18:06:50.758Z,94589.00
2018-07-30T18:09:23.896Z,94584.00
2018-07-30T18:11:56.212Z,94582.00
2018-07-30T18:14:29.084Z,94577.00
2018-07-30T18:17:01.976Z,94578.00
2018-07-30T18:19:34.341Z,94584.00
2018-07-30T18:22:06.753Z,94579.00
2018-07-30T18:24:39.225Z,94580.00
2018-07-30T18:27:11.702Z,94579.00
2018-07-30T18:29:44.919Z,94582.00
2018-07-30T18:32:17.563Z,94594.00
2018-07-30T18:34:50.268Z,94601.00
2018-07-30T18:37:23.156Z,94606.00
2018-07-30T18:39:55.856Z,94607.00
2018-07-30T18:42:29.117Z,94602.00
2018-07-30T18:45:01.915Z,94611.00
2018-07-30T18:47:34.707Z,94617.00
2018-07-30T18:50:09.496Z,94617.00
2018-07-30T18:52:45.937Z,94616.00
2018-07-30T18:55:18.473Z,94623.00
2018-07-30T18:57:51.470Z,94625.00
2018-07-30T19:00:53.175Z,94629.00
2018-07-30T19:03:26.485Z,94639.00
2018-07-30T19:05:59.086Z,94633.00
2018-07-30T19:08:31.918Z,94633.00
2018-07-30T19:11:04.222Z,94633.00
2018-07-30T19:13:36.668Z,94637.00
2018-07-30T19:16:08.976Z,94637.00
2018-07-30T19:18:41.749Z,94646.00
2018-07-30T19:21:15.063Z,94650.00
2018-07-30T19:23:47.542Z,94653.00
2018-07-30T19:26:20.305Z,94654.00
2018-07-30T19:28:53.157Z,94647.00
2018-07-30T19:31:25.768Z,94648.00
2018-07-30T19:33:58.047Z,94648.00
2018-07-30T19:36:31.322Z,94660.00
2018-07-30T19:39:04.898Z,94665.00
2018-07-30T19:41:37.537Z,94662.00
2018-07-30T19:44:10.794Z,94662.00
2018-07-30T19:46:43.138Z,94665.00
2018-07-30T19:49:16.226Z,94662.00
2018-07-30T19:51:49.125Z,94662.00
2018-07-30T19:54:21.740Z,94661.00
2018-07-30T19:56:54.066Z,94661.00
2018-07-30T19:59:27.833Z,94665.00
2018-07-30T20:02:01.859Z,94667.00
2018-07-30T20:04:34.096Z,94665.00
2018-07-30T20:07:06.515Z,94672.00
2018-07-30T20:09:39.617Z,94672.00
2018-07-30T20:12:13.160Z,94670.00
2018-07-30T20:14:45.316Z,94666.00
2018-07-30T20:17:17.614Z,94664.00
2018-07-30T20:19:49.874Z,94661.00
2018-07-30T20:22:22.202Z,94661.00
2018-07-30T20:24:54.439Z,94663.00
2018-07-30T20:27:26.534Z,94676.00
2018-07-30T20:29:58.955Z,94677.00
2018-07-30T20:32:31.383Z,94676.00
2018-07-30T20:35:03.458Z,94671.00
2018-07-30T20:37:36.249Z,94665.00
2018-07-30T20:40:08.295Z,94663.00
2018-07-30T20:42:40.167Z,94663.00
2018-07-30T20:45:14.755Z,94663.00
2018-07-30T20:47:47.350Z,94669.00
2018-07-30T20:50:19.809Z,94682.00
2018-07-30T20:52:51.998Z,94679.00
2018-07-30T20:55:24.503Z,94686.00
2018-07-30T20:57:56.837Z,94679.00
2018-07-30T21:00:29.079Z,94672.00
2018-07-30T21:03:02.599Z,94679.00
2018-07-30T21:05:40.643Z,94683.00
2018-07-30T21:08:14.569Z,94686.00
2018-07-30T21:10:47.391Z,94687.00
2018-07-30T21:13:19.285Z,94681.00
2018-07-30T21:15:51.516Z,94679.00
2018-07-30T21:18:24.338Z,94683.00
2018-07-30T21:20:56.694Z,94686.00
2018-07-30T21:23:29.024Z,94686.00
2018-07-30T21:26:01.086Z,94683.00
2018-07-30T21:28:33.492Z,94680.00
2018-07-30T21:31:05.816Z,94681.00
2018-07-30T21:33:37.713Z,94681.00
2018-07-30T21:36:09.812Z,94674.00
2018-07-30T21:38:42.204Z,94671.00
2018-07-30T21:41:14.359Z,94668.00
2018-07-30T21:43:46.562Z,94671.00
2018-07-30T21:46:18.709Z,94675.00
2018-07-30T21:48:50.161Z,94684.00
2018-07-30T21:51:21.590Z,94678.00
2018-07-30T21:53:53.933Z,94681.00
2018-07-30T21:56:26.125Z,94685.00
2018-07-30T21:58:58.732Z,94681.00
2018-07-30T22:01:31.099Z,94675.00
2018-07-30T22:04:03.728Z,94676.00
2018-07-30T22:06:35.763Z,94683.00
2018-07-30T22:09:10.275Z,94677.00
2018-07-30T22:11:42.429Z,94678.00
2018-07-30T22:14:14.410Z,94674.00
2018-07-30T22:16:46.017Z,94667.00
2018-07-30T22:19:18.110Z,94668.00
2018-07-30T22:21:50.194Z,94675.00
2018-07-30T22:24:22.589Z,94674.00
2018-07-30T22:26:54.850Z,94674.00
2018-07-30T22:29:26.802Z,94677.00
2018-07-30T22:31:58.823Z,94680.00
2018-07-30T22:34:31.058Z,94684.00
2018-07-30T22:37:03.292Z,94681.00
2018-07-30T22:39:35.251Z,94682.00
2018-07-30T22:42:07.096Z,94682.00
2018-07-30T22:44:39.342Z,94682.00
2018-07-30T22:47:11.397Z,94680.00
2018-07-30T22:49:43.299Z,94681.00
2018-07-30T22:52:15.306Z,94688.00
2018-07-30T22:54:46.852Z,94686.00
2018-07-30T22:57:19.010Z,94681.00
2018-07-30T22:59:51.616Z,94684.00
2018-07-30T23:02:23.949Z,94684.00
2018-07-30T23:04:55.974Z,94684.00
2018-07-30T23:07:28.300Z,94682.00
2018-07-30T23:10:00.393Z,94678.00
2018-07-30T23:12:31.709Z,94673.00
2018-07-30T23:15:03.956Z,94661.00
2018-07-30T23:17:36.113Z,94653.00
2018-07-30T23:20:08.111Z,94658.00
2018-07-30T23:22:39.996Z,94658.00
2018-07-30T23:25:12.157Z,94660.00
2018-07-30T23:27:43.599Z,94655.00
2018-07-30T23:30:15.494Z,94658.00
2018-07-30T23:32:47.682Z,94663.00
2018-07-30T23:35:19.527Z,94660.00
2018-07-30T23:37:51.877Z,94661.00
2018-07-30T23:40:23.801Z,94655.00
2018-07-30T23:42:55.576Z,94657.00
2018-07-30T23:45:27.598Z,94660.00
2018-07-30T23:47:59.778Z,94656.00
2018-07-30T23:50:32.109Z,94647.00
2018-07-30T23:53:05.176Z,94654.00
2018-07-30T23:55:37.238Z,94661.00
2018-07-30T23:58:09.299Z,94663.00
